Time;durP1;ratioP1;P1;durP2;ratioP2;P2;SDS_P1;SDS_P2;PMS_P1;PMS_P2;Temp;Humidity;BMP_temperature;BMP_pressure;BME280_temperature;BME280_humidity;BME280_pressure;Samples;Min_cycle;Max_cycle;Signal;HPM_P1;HPM_P2
2022/02/06 00:01:17;;;;;;;0.90;0.90;;;;;;;3.56;67.41;99410.91;4916477;29;20039;-71
2022/02/06 00:03:42;;;;;;;0.70;0.70;;;;;;;3.46;67.19;99404.75;4915766;29;20024;-71
2022/02/06 00:06:08;;;;;;;0.63;0.63;;;;;;;3.52;67.02;99407.41;4916135;29;20019;-71
2022/02/06 00:08:34;;;;;;;1.58;1.50;;;;;;;3.54;67.13;99410.91;4916210;29;20457;-70
2022/02/06 00:10:59;;;;;;;7.43;1.45;;;;;;;3.53;66.60;99400.59;4916207;29;20521;-71
2022/02/06 00:13:24;;;;;;;0.80;0.80;;;;;;;3.55;66.42;99394.69;4916102;29;20137;-70
2022/02/06 00:15:50;;;;;;;0.98;0.98;;;;;;;3.50;66.33;99390.31;4930621;29;20028;-71
2022/02/06 00:18:15;;;;;;;0.50;0.50;;;;;;;3.44;66.72;99385.06;4916207;29;20394;-71
2022/02/06 00:20:50;;;;;;;3.15;1.15;;;;;;;3.43;66.92;99378.19;4916045;29;20378;-71
2022/02/06 00:23:18;;;;;;;0.90;0.90;;;;;;;3.40;67.47;99381.56;4916131;29;20032;-70
2022/02/06 00:25:54;;;;;;;0.55;0.55;;;;;;;3.39;67.44;99371.31;4915750;29;20027;-71
2022/02/06 00:33:35;;;;;;;0.85;0.85;;;;;;;3.38;67.76;99364.44;4915915;29;20095;-70
2022/02/06 00:41:22;;;;;;;0.80;0.80;;;;;;;3.35;67.46;99357.56;4915976;29;20493;-70
2022/02/06 00:43:48;;;;;;;0.60;0.60;;;;;;;3.39;67.57;99355.94;4916300;29;20363;-70
2022/02/06 00:46:16;;;;;;;1.10;0.70;;;;;;;3.38;67.58;99349.06;4915769;29;20080;-70
2022/02/06 00:48:45;;;;;;;0.80;0.80;;;;;;;3.37;68.10;99342.22;4915662;29;20508;-70
2022/02/06 00:53:54;;;;;;;0.70;0.70;;;;;;;3.38;67.84;99341.38;4915978;29;20039;-71
2022/02/06 00:56:20;;;;;;;0.70;0.70;;;;;;;3.35;67.87;99337.94;4915508;29;20477;-70
2022/02/06 00:58:45;;;;;;;2.78;1.73;;;;;;;3.35;67.97;99339.63;4915554;29;20036;-71
2022/02/06 08:01:21;;;;;;;0.50;0.50;;;;;;;5.41;63.80;98871.81;5469650;23;20051;-76
2022/02/06 08:03:46;;;;;;;0.50;0.50;;;;;;;5.43;64.15;98875.25;4935225;29;20035;-76
2022/02/06 08:06:13;;;;;;;0.50;0.50;;;;;;;5.44;63.96;98860.69;4930963;29;20028;-76
2022/02/06 08:08:38;;;;;;;0.80;0.80;;;;;;;5.46;64.13;98864.13;4916314;29;20028;-77
2022/02/06 08:11:04;;;;;;;1.50;1.40;;;;;;;5.53;64.85;98855.59;4908722;29;20031;-76
2022/02/06 08:13:41;;;;;;;0.70;0.70;;;;;;;5.65;64.56;98847.91;4897562;29;20052;-76
2022/02/06 08:16:08;;;;;;;0.50;0.50;;;;;;;5.56;63.72;98845.31;4897626;29;20031;-71
2022/02/06 08:18:36;;;;;;;0.50;0.50;;;;;;;5.59;63.87;98847.91;4897330;29;20107;-71
2022/02/06 08:21:03;;;;;;;0.50;0.50;;;;;;;5.58;64.36;98844.47;4897066;29;20050;-77
2022/02/06 08:23:29;;;;;;;0.50;0.50;;;;;;;5.61;64.00;98841.06;4896916;29;20037;-77
2022/02/06 08:25:55;;;;;;;0.55;0.55;;;;;;;5.61;64.18;98839.34;4896841;29;20132;-76
2022/02/06 08:28:20;;;;;;;1.45;1.23;;;;;;;5.65;63.35;98829.91;4897225;29;20064;-71
2022/02/06 08:30:45;;;;;;;3.45;0.88;;;;;;;5.67;63.70;98833.38;4897036;29;20072;-70
2022/02/06 08:33:11;;;;;;;0.57;0.57;;;;;;;5.65;63.67;98835.91;4909211;29;20103;-70
2022/02/06 08:35:36;;;;;;;2.35;2.15;;;;;;;5.69;64.86;98811.09;4915706;29;20042;-71
2022/02/06 08:38:01;;;;;;;0.50;0.50;;;;;;;5.74;64.10;98818.81;4915721;29;20048;-70
2022/02/06 08:40:27;;;;;;;0.63;0.50;;;;;;;5.87;64.35;98816.25;4915693;29;20028;-76
2022/02/06 08:42:52;;;;;;;2.65;0.98;;;;;;;5.99;64.25;98817.16;4916209;29;20024;-77
2022/02/06 08:45:18;;;;;;;2.55;0.82;;;;;;;5.97;64.51;98817.16;4915915;29;20069;-76
2022/02/06 08:47:45;;;;;;;1.10;1.10;;;;;;;5.97;62.76;98811.16;4915748;29;20016;-77
2022/02/06 08:50:11;;;;;;;0.40;0.40;;;;;;;6.01;62.51;98807.75;4915815;29;20080;-77
2022/02/06 08:52:37;;;;;;;1.10;0.73;;;;;;;6.07;62.53;98800.03;4914738;29;20028;-77
2022/02/06 08:55:05;;;;;;;0.50;0.50;;;;;;;6.18;62.67;98796.59;4915665;29;20028;-76
2022/02/06 08:57:30;;;;;;;0.50;0.50;;;;;;;6.25;62.66;98802.59;4915532;29;20024;-76
2022/02/06 08:59:57;;;;;;;0.60;0.60;;;;;;;6.29;62.05;98803.47;4915787;29;20107;-76
2022/02/06 09:02:23;;;;;;;0.50;0.50;;;;;;;6.34;62.41;98800.03;4915347;29;20036;-76
2022/02/06 09:04:48;;;;;;;1.25;1.20;;;;;;;6.32;61.80;98793.16;4915616;29;20027;-71
2022/02/06 09:07:14;;;;;;;0.52;0.52;;;;;;;6.28;61.63;98787.16;4915447;29;20024;-71
2022/02/06 09:09:46;;;;;;;0.50;0.50;;;;;;;6.34;61.33;98796.59;4915601;29;20028;-71
2022/02/06 09:12:11;;;;;;;0.50;0.50;;;;;;;6.46;61.72;98793.16;4915481;29;20039;-71
2022/02/06 09:14:37;;;;;;;0.50;0.50;;;;;;;6.49;61.83;98781.13;4915645;29;20028;-77
2022/02/06 09:17:03;;;;;;;0.50;0.50;;;;;;;6.47;60.81;98787.13;4915450;29;20029;-71
2022/02/06 09:19:29;;;;;;;0.50;0.50;;;;;;;6.42;61.18;98777.69;4915633;29;20039;-76
2022/02/06 09:21:55;;;;;;;0.60;0.60;;;;;;;6.40;61.98;98781.16;4915361;29;20115;-76
2022/02/06 09:24:21;;;;;;;0.47;0.47;;;;;;;6.40;62.03;98782.00;4915738;29;20111;-76
2022/02/06 09:26:47;;;;;;;0.50;0.50;;;;;;;6.33;61.53;98785.41;4914173;29;20024;-76
2022/02/06 09:29:12;;;;;;;0.40;0.40;;;;;;;6.32;61.79;98773.44;4915720;29;20103;-76
2022/02/06 09:31:38;;;;;;;0.50;0.50;;;;;;;6.33;62.28;98784.56;4915695;29;20132;-76
2022/02/06 09:36:30;;;;;;;0.50;0.50;;;;;;;6.43;61.89;98761.41;4918056;29;20028;-76
2022/02/06 09:38:56;;;;;;;0.50;0.50;;;;;;;6.42;61.98;98757.09;4919241;29;20024;-76
2022/02/06 09:41:21;;;;;;;0.50;0.50;;;;;;;6.46;61.69;98757.97;4919058;29;20039;-76
2022/02/06 09:43:47;;;;;;;0.50;0.50;;;;;;;6.44;61.39;98742.53;4919013;29;20054;-70
2022/02/06 09:46:14;;;;;;;0.50;0.50;;;;;;;6.56;61.33;98751.09;4918749;29;20064;-73
2022/02/06 09:48:39;;;;;;;0.40;0.40;;;;;;;6.68;61.63;98743.34;4919017;29;20405;-72
2022/02/06 09:51:05;;;;;;;0.50;0.50;;;;;;;6.65;61.72;98735.63;4918699;29;20024;-78
2022/02/06 09:53:31;;;;;;;0.40;0.40;;;;;;;6.66;61.21;98737.31;4918890;29;20032;-78
2022/02/06 09:56:01;;;;;;;0.50;0.50;;;;;;;6.57;61.04;98737.34;4918549;29;20032;-77
2022/02/06 10:01:08;;;;;;;0.50;0.50;;;;;;;6.58;61.44;98714.19;4918956;29;20067;-77
2022/02/06 10:03:42;;;;;;;0.40;0.40;;;;;;;6.73;61.77;98710.72;4923562;29;20111;-71
2022/02/06 10:06:15;;;;;;;0.63;0.63;;;;;;;7.12;60.60;98713.97;4918462;29;20365;-71
2022/02/06 10:08:43;;;;;;;0.40;0.40;;;;;;;7.25;59.76;98679.53;4918578;29;20024;-71
2022/02/06 10:11:16;;;;;;;0.38;0.38;;;;;;;7.60;59.34;98693.91;4918396;29;20038;-70
2022/02/06 10:13:43;;;;;;;0.47;0.47;;;;;;;7.41;59.15;98665.69;4918679;29;20099;-76
2022/02/06 10:16:12;;;;;;;1.33;1.23;;;;;;;7.29;59.64;98667.47;4918148;29;20516;-71
2022/02/06 10:18:38;;;;;;;0.50;0.50;;;;;;;7.17;60.17;98663.28;4918325;29;20035;-71
2022/02/06 10:21:05;;;;;;;0.50;0.50;;;;;;;7.20;60.37;98663.22;4918316;29;20028;-76
2022/02/06 10:26:07;;;;;;;0.50;0.50;;;;;;;7.06;59.62;98647.00;4918347;29;20545;-74
2022/02/06 10:28:37;;;;;;;1.30;1.25;;;;;;;7.06;60.55;98647.00;4918723;29;20051;-72
2022/02/06 10:31:05;;;;;;;0.60;0.60;;;;;;;7.11;60.29;98637.56;4915645;29;20107;-76
2022/02/06 10:33:47;;;;;;;3.95;0.82;;;;;;;7.14;60.68;98622.06;4917883;29;20111;-72
2022/02/06 10:36:21;;;;;;;0.40;0.40;;;;;;;7.24;60.23;98626.28;4932612;29;20039;-77
2022/02/06 10:38:47;;;;;;;1.20;1.10;;;;;;;7.33;60.31;98621.06;4917913;29;20050;-76
2022/02/06 10:41:18;;;;;;;0.50;0.50;;;;;;;7.18;60.30;98621.19;4917847;29;20107;-72
2022/02/06 10:44:06;;;;;;;0.70;0.70;;;;;;;7.29;59.88;98609.06;4916650;29;20582;-72
2022/02/06 10:46:55;;;;;;;0.50;0.50;;;;;;;7.33;60.81;98623.63;4917110;29;20036;-72
2022/02/06 10:49:22;;;;;;;0.50;0.50;;;;;;;7.27;59.95;98607.38;4917777;29;20035;-72
2022/02/06 10:51:51;;;;;;;0.40;0.40;;;;;;;7.29;60.77;98601.31;4917674;29;20020;-72
2022/02/06 10:54:26;;;;;;;0.43;0.43;;;;;;;7.25;59.97;98615.09;4918041;29;20032;-76
2022/02/06 10:57:12;;;;;;;0.40;0.40;;;;;;;7.22;60.30;98605.69;4917575;29;20298;-76
2022/02/06 10:59:45;;;;;;;0.50;0.50;;;;;;;7.26;60.98;98600.53;4917634;29;20032;-72
2022/02/06 11:02:32;;;;;;;2.95;0.75;;;;;;;7.27;60.56;98597.91;4917300;29;20040;-72
2022/02/06 11:05:15;;;;;;;1.35;1.25;;;;;;;7.37;60.36;98578.94;4917777;29;20024;-76
2022/02/06 11:07:57;;;;;;;0.40;0.40;;;;;;;7.31;60.76;98563.53;4917582;29;20072;-76
2022/02/06 11:10:25;;;;;;;0.50;0.50;;;;;;;7.28;60.94;98568.69;4917486;29;20541;-79
2022/02/06 11:12:56;;;;;;;0.43;0.43;;;;;;;7.26;61.42;98554.13;4917559;29;20065;-69
2022/02/06 11:15:25;;;;;;;0.40;0.40;;;;;;;7.13;61.87;98548.22;4917303;29;20040;-71
2022/02/06 11:18:07;;;;;;;12.32;1.38;;;;;;;7.09;61.95;98531.06;4917199;29;20554;-71
2022/02/06 11:20:34;;;;;;;0.50;0.50;;;;;;;7.06;61.84;98541.38;4917044;29;20489;-77
2022/02/06 11:23:03;;;;;;;1.05;1.05;;;;;;;7.13;62.05;98522.44;4917144;29;20135;-71
2022/02/06 11:25:30;;;;;;;0.60;0.60;;;;;;;7.12;61.82;98525.91;4917008;29;20397;-77
2022/02/06 11:27:57;;;;;;;0.50;0.50;;;;;;;7.14;62.18;98519.00;4917031;29;20099;-76
2022/02/06 11:30:22;;;;;;;2.75;0.75;;;;;;;7.14;62.72;98519.00;4916978;29;20405;-72
2022/02/06 11:32:47;;;;;;;0.60;0.60;;;;;;;7.18;63.20;98500.06;4916966;29;20024;-72
2022/02/06 11:35:18;;;;;;;3.60;2.60;;;;;;;7.31;63.17;98495.69;4916748;29;20036;-72
2022/02/06 11:44:04;;;;;;;0.50;0.50;;;;;;;7.35;61.82;98481.88;4929329;29;20039;-77
2022/02/06 11:46:38;;;;;;;1.00;0.60;;;;;;;7.44;62.01;98472.31;4916515;29;20028;-72
2022/02/06 11:49:08;;;;;;;0.47;0.47;;;;;;;7.42;61.24;98460.34;4916748;29;20481;-72
2022/02/06 11:51:34;;;;;;;0.68;0.52;;;;;;;7.45;61.69;98466.31;4916555;29;20028;-72
2022/02/06 11:54:28;;;;;;;0.40;0.40;;;;;;;7.55;61.24;98453.34;4916720;29;20107;-77
2022/02/06 11:57:13;;;;;;;0.40;0.40;;;;;;;7.63;61.40;98436.88;4916238;29;20486;-77
2022/02/06 11:59:39;;;;;;;0.50;0.50;;;;;;;7.58;60.70;98432.66;4915748;29;20119;-77
2022/02/06 12:02:26;;;;;;;0.40;0.40;;;;;;;7.56;61.07;98434.41;4916276;29;20118;-77
2022/02/06 12:05:13;;;;;;;0.40;0.40;;;;;;;7.58;61.24;98422.34;4916597;29;20440;-77
2022/02/06 12:08:10;;;;;;;0.45;0.45;;;;;;;7.68;61.94;98424.78;4916164;29;20028;-72
2022/02/06 12:10:35;;;;;;;4.13;0.95;;;;;;;7.71;61.67;98423.91;4916261;29;20024;-72
2022/02/06 12:13:19;;;;;;;0.40;0.40;;;;;;;7.77;61.95;98408.34;4916077;29;20086;-73
2022/02/06 12:15:48;;;;;;;0.77;0.77;;;;;;;7.69;61.57;98410.19;4915589;29;20024;-73
2022/02/06 12:18:16;;;;;;;0.90;0.90;;;;;;;7.71;61.93;98398.13;4916317;29;20040;-77
2022/02/06 12:20:46;;;;;;;0.55;0.55;;;;;;;7.63;61.57;98405.94;4916067;29;20066;-73
2022/02/06 12:23:36;;;;;;;0.50;0.50;;;;;;;7.55;61.75;98414.66;4915922;29;20107;-77
2022/02/06 12:26:02;;;;;;;0.30;0.30;;;;;;;7.48;61.24;98386.34;4916035;29;20028;-72
2022/02/06 12:28:31;;;;;;;0.30;0.30;;;;;;;7.57;62.28;98379.41;4916037;29;20028;-72
2022/02/06 12:31:15;;;;;;;0.63;0.60;;;;;;;7.55;62.23;98351.06;4916058;29;20028;-77
2022/02/06 12:33:51;;;;;;;0.40;0.40;;;;;;;7.56;61.36;98351.91;4915666;29;20388;-73
2022/02/06 12:37:08;;;;;;;0.40;0.40;;;;;;;7.57;61.87;98345.88;4914848;29;20111;-73
2022/02/06 12:39:36;;;;;;;0.40;0.40;;;;;;;7.52;61.63;98350.25;4894718;29;20032;-73
2022/02/06 12:42:03;;;;;;;1.23;0.63;;;;;;;7.53;62.05;98331.31;4894751;29;20025;-77
2022/02/06 12:44:30;;;;;;;0.50;0.50;;;;;;;7.57;62.68;98335.56;4907017;29;20047;-73
2022/02/06 12:47:00;;;;;;;0.50;0.50;;;;;;;7.50;61.98;98326.22;4915797;29;20028;-73
2022/02/06 12:49:30;;;;;;;1.33;0.95;;;;;;;7.51;62.30;98307.31;4915741;29;20026;-77
2022/02/06 12:51:57;;;;;;;0.90;0.90;;;;;;;7.56;62.22;98320.97;4915712;29;20084;-77
2022/02/06 12:54:23;;;;;;;0.50;0.50;;;;;;;7.50;61.91;98308.19;4915856;29;20032;-72
2022/02/06 12:56:48;;;;;;;0.50;0.50;;;;;;;7.46;62.09;98310.78;4915445;29;20036;-77
2022/02/06 12:59:21;;;;;;;0.60;0.60;;;;;;;7.41;62.32;98304.84;4915715;29;20119;-77
2022/02/06 13:01:48;;;;;;;0.50;0.50;;;;;;;7.44;61.62;98293.63;4915557;29;20042;-77
2022/02/06 13:04:18;;;;;;;0.90;0.55;;;;;;;7.50;61.66;98295.28;4915463;29;20032;-72
2022/02/06 13:06:48;;;;;;;1.45;0.70;;;;;;;7.52;61.64;98285.81;4915426;29;20040;-77
2022/02/06 13:09:24;;;;;;;0.63;0.63;;;;;;;7.60;61.76;98294.28;4915508;29;20024;-77
2022/02/06 13:12:45;;;;;;;1.25;0.73;;;;;;;7.57;61.22;98281.44;4919116;29;20032;-72
2022/02/06 13:17:31;;;;;;;0.73;0.73;;;;;;;7.62;62.13;98253.84;4919307;29;20036;-77
2022/02/06 13:33:59;;;;;;;0.40;0.40;;;;;;;7.46;62.92;98228.31;4919094;29;20028;-77
2022/02/06 13:39:07;;;;;;;0.40;0.40;;;;;;;7.45;62.78;98208.56;4919347;29;20039;-77
2022/02/06 13:41:32;;;;;;;1.05;1.05;;;;;;;7.43;63.23;98215.44;4918856;29;20111;-77
2022/02/06 13:44:03;;;;;;;0.50;0.50;;;;;;;7.41;63.82;98204.31;4918799;29;20115;-77
2022/02/06 13:46:33;;;;;;;0.70;0.70;;;;;;;7.41;64.20;98193.16;4918399;29;20031;-77
2022/02/06 13:48:59;;;;;;;0.38;0.38;;;;;;;7.40;64.27;98186.31;4918724;29;20035;-77
2022/02/06 13:51:38;;;;;;;0.50;0.50;;;;;;;7.37;64.28;98186.34;4918443;29;20024;-72
2022/02/06 13:54:05;;;;;;;0.50;0.50;;;;;;;7.36;65.72;98180.34;4918876;29;20313;-77
2022/02/06 13:56:33;;;;;;;0.50;0.50;;;;;;;7.31;65.57;98174.41;4918265;29;20039;-72
2022/02/06 13:59:03;;;;;;;0.50;0.50;;;;;;;7.30;66.00;98167.56;4918467;29;20040;-72
2022/02/06 14:01:40;;;;;;;0.40;0.40;;;;;;;7.23;66.35;98168.50;4918330;29;20491;-73
2022/02/06 14:04:17;;;;;;;0.40;0.40;;;;;;;7.21;66.39;98159.97;4918377;29;20047;-77
2022/02/06 14:06:48;;;;;;;0.68;0.68;;;;;;;7.24;67.54;98153.91;4918096;29;20358;-75
2022/02/06 14:09:21;;;;;;;0.50;0.50;;;;;;;7.16;67.56;98161.75;4918615;29;20398;-72
2022/02/06 14:12:07;;;;;;;0.70;0.70;;;;;;;7.15;68.98;98149.72;4918362;29;20051;-72
2022/02/06 14:14:47;;;;;;;0.40;0.40;;;;;;;7.06;69.92;98124.09;4916243;29;20040;-77
2022/02/06 14:17:27;;;;;;;0.82;0.82;;;;;;;7.00;69.44;98134.50;4988469;23;20044;-72
2022/02/06 14:19:55;;;;;;;0.40;0.40;;;;;;;6.95;71.46;98130.25;4937105;29;20114;-72
2022/02/06 14:22:25;;;;;;;0.50;0.50;;;;;;;6.88;71.19;98128.66;4936106;29;20443;-71
2022/02/06 14:24:51;;;;;;;;;;;;;;;6.86;71.65;98117.50;4937532;29;20361;-71
2022/02/06 14:27:41;;;;;;;0.40;0.40;;;;;;;6.84;71.84;98123.56;4919158;29;19911;-71
2022/02/06 14:30:12;;;;;;;0.40;0.40;;;;;;;6.75;73.39;98118.53;4918182;29;20401;-71
2022/02/06 14:33:07;;;;;;;0.50;0.50;;;;;;;6.69;73.47;98107.44;4917731;29;20071;-72
2022/02/06 14:36:07;;;;;;;0.40;0.40;;;;;;;6.68;73.89;98099.75;4917833;29;20024;-71
2022/02/06 14:44:00;;;;;;;0.50;0.50;;;;;;;6.60;75.02;98091.28;4917743;29;20091;-71
2022/02/06 14:46:27;;;;;;;0.50;0.50;;;;;;;6.59;74.59;98063.84;4917413;29;20055;-71
2022/02/06 14:48:53;;;;;;;0.60;0.60;;;;;;;6.54;76.30;98073.34;4917591;29;20497;-71
2022/02/06 14:51:19;;;;;;;0.40;0.40;;;;;;;6.51;75.17;98068.25;4917589;29;20055;-71
2022/02/06 14:53:45;;;;;;;0.47;0.47;;;;;;;6.40;76.60;98055.53;4917455;29;20094;-71
2022/02/06 14:56:12;;;;;;;0.50;0.50;;;;;;;6.49;74.70;98049.41;4917329;29;20458;-71
2022/02/06 14:58:41;;;;;;;0.50;0.50;;;;;;;6.47;74.98;98030.53;4917560;29;20114;-71
2022/02/06 15:01:07;;;;;;;0.50;0.50;;;;;;;6.43;75.62;98030.59;4917425;29;20087;-71
2022/02/06 15:03:32;;;;;;;0.50;0.50;;;;;;;6.38;76.23;98022.09;4917230;29;20036;-71
2022/02/06 15:05:58;;;;;;;3.30;0.70;;;;;;;6.35;76.62;98032.41;4916978;29;20454;-71
2022/02/06 15:08:24;;;;;;;3.13;1.67;;;;;;;6.35;77.20;98037.56;4917605;29;20710;-71
2022/02/06 15:10:50;;;;;;;0.40;0.40;;;;;;;6.32;77.19;98032.44;4917231;29;20034;-71
2022/02/06 15:13:16;;;;;;;0.63;0.63;;;;;;;6.35;76.62;98011.84;4917213;29;20028;-71
2022/02/06 15:15:49;;;;;;;0.50;0.50;;;;;;;6.23;77.53;98027.41;4916682;29;20487;-71
2022/02/06 15:20:47;;;;;;;0.40;0.40;;;;;;;6.05;81.28;98032.81;4917334;29;20029;-71
2022/02/06 15:23:12;;;;;;;0.82;0.82;;;;;;;5.99;81.08;98027.72;4917146;29;20036;-71
2022/02/06 15:25:37;;;;;;;0.50;0.50;;;;;;;5.96;81.08;98017.50;4916947;29;20039;-71
2022/02/06 15:28:03;;;;;;;0.73;0.73;;;;;;;5.83;82.57;98027.03;4916932;29;20051;-71
2022/02/06 15:30:29;;;;;;;1.48;0.80;;;;;;;5.75;83.37;98021.09;4915698;29;20028;-72
2022/02/06 15:32:54;;;;;;;0.70;0.70;;;;;;;5.68;83.55;97992.06;4916535;29;20024;-72
2022/02/06 15:35:20;;;;;;;0.85;0.70;;;;;;;5.66;83.68;97984.38;4931257;29;20631;-71
2022/02/06 15:37:48;;;;;;;0.50;0.50;;;;;;;5.73;84.13;97995.44;4916452;29;20068;-71
2022/02/06 15:40:16;;;;;;;0.57;0.57;;;;;;;5.73;83.14;97995.44;4915490;29;20076;-72
2022/02/06 15:42:42;;;;;;;0.40;0.40;;;;;;;5.73;82.33;98016.00;4916484;29;20031;-70
2022/02/06 15:45:08;;;;;;;0.50;0.50;;;;;;;5.69;82.63;97980.91;4916412;29;20028;-72
2022/02/06 15:47:33;;;;;;;0.50;0.50;;;;;;;5.70;82.75;97979.19;4916303;29;20048;-71
2022/02/06 15:49:59;;;;;;;0.50;0.50;;;;;;;5.74;82.10;97991.13;4916670;29;20032;-69
2022/02/06 15:52:25;;;;;;;0.55;0.55;;;;;;;5.71;82.51;97997.19;4916577;29;20036;-71
2022/02/06 15:54:50;;;;;;;0.70;0.70;;;;;;;5.71;82.96;97971.47;4916685;29;20032;-71
2022/02/06 15:57:15;;;;;;;0.40;0.40;;;;;;;5.75;83.16;97982.56;4916289;29;20145;-69
2022/02/06 15:59:41;;;;;;;0.50;0.50;;;;;;;5.79;82.84;97995.34;4916638;29;20038;-69
2022/02/06 16:02:07;;;;;;;0.50;0.50;;;;;;;5.80;82.62;97973.94;4916342;29;20031;-69
2022/02/06 16:04:32;;;;;;;0.77;0.77;;;;;;;5.80;82.12;97994.50;4916511;29;20024;-71
2022/02/06 16:06:57;;;;;;;0.50;0.50;;;;;;;5.84;81.41;97970.44;4916095;29;20556;-69
2022/02/06 16:09:28;;;;;;;0.50;0.50;;;;;;;5.82;81.71;97969.63;4916559;29;20032;-71
2022/02/06 16:11:54;;;;;;;0.50;0.50;;;;;;;5.83;81.99;97965.34;4916326;29;20036;-71
2022/02/06 16:14:19;;;;;;;0.50;0.50;;;;;;;5.82;82.80;97972.19;4916159;29;20111;-68
2022/02/06 16:16:45;;;;;;;2.85;0.70;;;;;;;5.81;82.33;97988.50;4915847;29;20036;-70
2022/02/06 16:19:10;;;;;;;0.70;0.70;;;;;;;5.83;82.21;97971.31;4916236;29;20038;-68
2022/02/06 16:21:36;;;;;;;0.50;0.50;;;;;;;5.86;81.43;97960.16;4916256;29;20028;-69
2022/02/06 16:24:01;;;;;;;0.50;0.50;;;;;;;5.83;82.40;97950.75;4916110;29;20083;-68
2022/02/06 16:26:27;;;;;;;0.50;0.50;;;;;;;5.89;81.28;97932.69;4916080;29;20027;-71
2022/02/06 16:28:55;;;;;;;0.50;0.50;;;;;;;5.94;79.59;97937.78;4915948;29;20450;-77
2022/02/06 16:31:21;;;;;;;0.50;0.50;;;;;;;5.92;80.18;97913.84;4916028;29;20034;-71
2022/02/06 16:33:48;;;;;;;0.50;0.50;;;;;;;5.91;79.72;97928.41;4915827;29;20016;-71
2022/02/06 16:36:14;;;;;;;0.60;0.60;;;;;;;5.93;79.19;97905.25;4915751;29;20083;-70
2022/02/06 16:38:40;;;;;;;0.43;0.43;;;;;;;5.92;79.46;97919.81;4915967;29;20024;-70
2022/02/06 16:41:06;;;;;;;0.50;0.50;;;;;;;5.96;79.14;97914.66;4915930;29;20032;-70
2022/02/06 16:43:32;;;;;;;0.50;0.50;;;;;;;5.95;80.06;97897.50;4915638;29;20035;-70
2022/02/06 16:45:57;;;;;;;0.45;0.45;;;;;;;5.93;79.75;97884.69;4915030;29;20032;-70
2022/02/06 16:48:23;;;;;;;0.40;0.40;;;;;;;5.90;79.19;97895.84;4915884;29;20024;-70
2022/02/06 16:50:49;;;;;;;0.43;0.43;;;;;;;5.87;79.66;97874.47;4915941;29;20056;-70
2022/02/06 16:53:16;;;;;;;0.40;0.40;;;;;;;5.93;80.28;97888.09;4915877;29;20038;-70
2022/02/06 16:55:42;;;;;;;0.50;0.50;;;;;;;5.90;80.51;97880.41;4915588;29;20030;-70
2022/02/06 16:58:07;;;;;;;0.45;0.45;;;;;;;5.92;79.63;97888.97;4915647;29;20028;-70
2022/02/06 17:00:33;;;;;;;0.55;0.55;;;;;;;5.92;80.32;97888.97;4915692;29;20161;-70
2022/02/06 17:02:58;;;;;;;0.70;0.70;;;;;;;5.93;80.46;97900.94;4915903;29;20083;-70
2022/02/06 17:05:23;;;;;;;0.60;0.60;;;;;;;5.97;79.98;97900.91;4915438;29;20056;-70
2022/02/06 17:07:49;;;;;;;2.55;2.10;;;;;;;6.00;79.86;97885.47;4915581;29;20025;-70
2022/02/06 17:10:16;;;;;;;0.57;0.57;;;;;;;5.98;79.57;97876.91;4915727;29;20543;-70
2022/02/06 17:12:42;;;;;;;0.57;0.57;;;;;;;5.99;80.03;97878.59;4915507;29;20051;-70
2022/02/06 17:15:07;;;;;;;0.60;0.60;;;;;;;5.98;80.71;97889.75;4914557;29;20024;-70
2022/02/06 17:17:33;;;;;;;0.65;0.65;;;;;;;6.01;79.45;97871.72;4915100;29;20647;-70
2022/02/06 17:19:59;;;;;;;2.08;1.88;;;;;;;6.04;79.70;97861.38;4915506;29;20032;-70
2022/02/06 17:22:25;;;;;;;0.50;0.50;;;;;;;6.03;80.38;97859.69;4915587;29;20367;-70
2022/02/06 17:24:50;;;;;;;0.50;0.50;;;;;;;5.99;80.57;97843.44;4915453;29;20083;-70
2022/02/06 17:27:16;;;;;;;0.60;0.60;;;;;;;6.00;80.32;97845.16;4915118;29;20016;-70
2022/02/06 17:29:43;;;;;;;0.50;0.50;;;;;;;6.03;80.48;97849.41;4915386;29;20024;-70
2022/02/06 17:32:09;;;;;;;0.60;0.60;;;;;;;6.00;80.83;97845.16;4915348;29;20031;-70
2022/02/06 17:34:34;;;;;;;0.60;0.60;;;;;;;6.06;80.74;97823.66;4915345;29;20028;-70
2022/02/06 17:36:59;;;;;;;0.50;0.50;;;;;;;6.11;80.30;97819.28;4915057;29;20032;-70
2022/02/06 17:39:25;;;;;;;2.72;1.98;;;;;;;6.12;79.93;97813.25;4915543;29;20071;-70
2022/02/06 17:41:50;;;;;;;0.50;0.50;;;;;;;6.10;80.75;97812.47;4915437;29;20028;-70
2022/02/06 17:44:16;;;;;;;0.60;0.60;;;;;;;6.09;80.89;97826.16;4915289;29;20028;-70
2022/02/06 17:46:41;;;;;;;0.60;0.60;;;;;;;6.12;80.32;97795.25;4914895;29;20052;-70
2022/02/06 17:49:07;;;;;;;0.50;0.50;;;;;;;6.12;80.24;97810.69;4915392;29;20067;-70
2022/02/06 17:51:32;;;;;;;0.40;0.40;;;;;;;6.12;80.60;97788.41;4915410;29;20537;-70
2022/02/06 17:53:58;;;;;;;0.70;0.70;;;;;;;6.17;80.25;97807.16;4915372;29;20774;-70
2022/02/06 17:56:23;;;;;;;0.80;0.80;;;;;;;6.25;80.09;97794.19;4916016;29;20426;-70
2022/02/06 17:58:48;;;;;;;1.05;1.05;;;;;;;6.22;79.45;97783.09;4918618;29;20032;-70
2022/02/06 18:01:14;;;;;;;0.40;0.40;;;;;;;6.29;79.08;97788.13;4918647;29;20039;-70
2022/02/06 18:03:39;;;;;;;0.50;0.50;;;;;;;6.28;78.98;97791.56;4918377;29;20381;-70
2022/02/06 18:06:06;;;;;;;0.50;0.50;;;;;;;6.28;79.51;97783.84;4918128;29;20028;-70
2022/02/06 18:08:34;;;;;;;0.60;0.60;;;;;;;6.30;78.93;97761.53;4918593;29;20034;-70
2022/02/06 18:11:00;;;;;;;0.60;0.60;;;;;;;6.34;79.63;97783.75;4918545;29;20440;-70
2022/02/06 18:13:27;;;;;;;0.60;0.60;;;;;;;6.31;79.30;97788.94;4918375;29;20063;-70
2022/02/06 18:15:53;;;;;;;0.57;0.57;;;;;;;6.33;79.89;97779.47;4918212;29;20476;-70
2022/02/06 18:18:18;;;;;;;0.80;0.80;;;;;;;6.28;79.63;97791.56;4918185;29;20104;-70
2022/02/06 18:20:43;;;;;;;0.50;0.50;;;;;;;6.33;80.43;97756.31;4918495;29;20438;-70
2022/02/06 18:23:09;;;;;;;0.50;0.50;;;;;;;6.33;79.69;97765.75;4918260;29;20541;-70
2022/02/06 18:25:36;;;;;;;1.13;1.05;;;;;;;6.33;79.44;97745.19;4918236;29;20066;-70
2022/02/06 18:28:02;;;;;;;1.58;1.48;;;;;;;6.37;79.18;97751.97;4918409;29;20143;-70
2022/02/06 18:30:28;;;;;;;1.45;1.35;;;;;;;6.39;79.32;97734.78;4918322;29;20036;-70
2022/02/06 18:32:54;;;;;;;1.27;0.75;;;;;;;6.37;80.08;97746.81;4918043;29;20024;-70
2022/02/06 18:35:20;;;;;;;0.93;0.90;;;;;;;6.39;78.80;97719.38;4917821;29;20036;-70
2022/02/06 18:37:48;;;;;;;0.47;0.47;;;;;;;6.39;79.06;97709.91;4917791;29;20079;-71
2022/02/06 18:40:14;;;;;;;2.47;1.40;;;;;;;6.40;78.91;97701.31;4917738;29;20045;-70
2022/02/06 18:42:40;;;;;;;4.40;2.03;;;;;;;6.42;78.70;97702.13;4917855;29;20079;-70
2022/02/06 18:45:06;;;;;;;0.88;0.88;;;;;;;6.42;78.66;97714.97;4917613;29;20040;-70
2022/02/06 18:47:32;;;;;;;1.23;1.23;;;;;;;6.43;78.54;97692.66;4917703;29;20020;-71
2022/02/06 18:49:58;;;;;;;4.55;0.80;;;;;;;6.37;79.61;97697.94;4917935;29;20056;-71
2022/02/06 18:52:24;;;;;;;0.50;0.50;;;;;;;6.35;80.21;97703.13;4917798;29;20512;-70
2022/02/06 18:54:49;;;;;;;0.43;0.43;;;;;;;6.33;80.53;97674.00;4917696;29;20112;-70
2022/02/06 18:57:17;;;;;;;0.40;0.40;;;;;;;6.23;81.68;97669.91;4917284;29;20042;-70
2022/02/06 18:59:45;;;;;;;0.60;0.60;;;;;;;6.21;82.18;97671.66;4917658;29;20496;-71
2022/02/06 19:02:11;;;;;;;0.45;0.45;;;;;;;6.20;82.16;97693.13;4917637;29;20040;-71
2022/02/06 19:04:38;;;;;;;0.75;0.75;;;;;;;6.20;81.58;97682.84;4917487;29;20162;-71
2022/02/06 19:07:04;;;;;;;0.82;0.60;;;;;;;6.23;81.23;97682.75;4917319;29;20052;-71
2022/02/06 19:09:30;;;;;;;0.55;0.55;;;;;;;6.22;81.75;97688.78;4916981;29;20025;-70
2022/02/06 19:11:57;;;;;;;0.90;0.55;;;;;;;6.26;81.85;97667.28;4917571;29;20080;-70
2022/02/06 19:14:23;;;;;;;0.43;0.43;;;;;;;6.25;82.09;97665.59;4917561;29;20024;-70
2022/02/06 19:16:48;;;;;;;0.73;0.73;;;;;;;6.16;83.65;97684.59;4916650;29;20039;-70
2022/02/06 19:19:13;;;;;;;0.93;0.93;;;;;;;6.16;83.39;97670.91;4917240;29;20028;-71
2022/02/06 19:21:39;;;;;;;0.60;0.60;;;;;;;6.15;84.00;97659.78;4917214;29;20075;-70
2022/02/06 19:24:06;;;;;;;0.43;0.43;;;;;;;6.08;84.90;97657.31;4917137;29;20062;-71
2022/02/06 19:26:31;;;;;;;0.52;0.52;;;;;;;6.07;85.04;97645.34;4916946;29;20028;-70
2022/02/06 19:29:00;;;;;;;0.45;0.45;;;;;;;6.14;83.61;97621.22;4917269;29;20035;-70
2022/02/06 19:31:25;;;;;;;0.40;0.40;;;;;;;6.15;83.45;97653.78;4917063;29;20030;-70
2022/02/06 19:33:51;;;;;;;0.55;0.55;;;;;;;6.20;83.72;97646.84;4916808;29;20020;-67
2022/02/06 19:36:16;;;;;;;1.95;1.33;;;;;;;6.21;83.79;97642.53;4916556;29;20031;-67
2022/02/06 19:38:47;;;;;;;0.60;0.60;;;;;;;6.25;83.73;97642.44;4916789;29;20072;-67
2022/02/06 19:41:13;;;;;;;0.40;0.40;;;;;;;6.24;83.53;97647.59;4916922;29;20397;-67
2022/02/06 19:43:43;;;;;;;0.40;0.40;;;;;;;6.32;84.30;97672.31;4914128;29;20055;-67